Lonetree, Wyoming
Current Conditions -  °F | °C
As of 1:55 AM on Sunday 26 Oct 2014 (Local Time) from KFBR Reporting Station
Clear Clear  
Wind Chill: 54°   Ceiling: Unl
Heat Index: 54°   Visibility: NA
Dew Point: 35°   Wind: 18mph
Humidity: 49%   Direction: 230°SW
Pressure: 30.02"   Gusts: 25mph
Location:  41.0297°N, 110.145°W
Report Text: KFBR 260755Z AUTO 23016G22KT CLR 12/02 A3002 RMK AO2 LTG DSNT NW T01230017 PWINO
Loading
Personal Weather Stations






























Interactive Weather Map
Tropical Storm Tracking
New forecast layout! Learn more

10-Day Weather Forecast

Advertisements
Track Severe Weather on mobile